sensor_id;sensor_type;location;lat;lon;timestamp;pressure;altitude;pressure_sealevel;temperature
62845;BMP280;48929;47.910;20.390;2023-04-15T00:00:06;98407.25;;;5.54
62845;BMP280;48929;47.910;20.390;2023-04-15T00:02:36;98404.41;;;5.60
62845;BMP280;48929;47.910;20.390;2023-04-15T00:05:07;98404.41;;;5.65
62845;BMP280;48929;47.910;20.390;2023-04-15T00:07:36;98409.75;;;5.69
62845;BMP280;48929;47.910;20.390;2023-04-15T00:10:05;98401.25;;;5.73
62845;BMP280;48929;47.910;20.390;2023-04-15T00:12:35;98409.94;;;5.78
62845;BMP280;48929;47.910;20.390;2023-04-15T00:15:05;98403.03;;;5.83
62845;BMP280;48929;47.910;20.390;2023-04-15T00:17:34;98405.84;;;5.87
62845;BMP280;48929;47.910;20.390;2023-04-15T00:20:08;98404.03;;;5.92
62845;BMP280;48929;47.910;20.390;2023-04-15T00:22:36;98407.34;;;5.93
62845;BMP280;48929;47.910;20.390;2023-04-15T00:25:05;98404.00;;;5.97
62845;BMP280;48929;47.910;20.390;2023-04-15T00:27:34;98402.16;;;6.03
62845;BMP280;48929;47.910;20.390;2023-04-15T00:30:03;98395.50;;;6.07
62845;BMP280;48929;47.910;20.390;2023-04-15T00:32:32;98397.53;;;6.10
62845;BMP280;48929;47.910;20.390;2023-04-15T00:35:01;98387.56;;;6.14
62845;BMP280;48929;47.910;20.390;2023-04-15T00:37:31;98397.03;;;6.13
62845;BMP280;48929;47.910;20.390;2023-04-15T00:40:01;98391.41;;;6.11
62845;BMP280;48929;47.910;20.390;2023-04-15T00:42:31;98392.19;;;6.06
62845;BMP280;48929;47.910;20.390;2023-04-15T00:45:01;98395.00;;;6.05
62845;BMP280;48929;47.910;20.390;2023-04-15T00:47:30;98400.09;;;6.05
62845;BMP280;48929;47.910;20.390;2023-04-15T00:50:08;98413.66;;;6.05
62845;BMP280;48929;47.910;20.390;2023-04-15T00:52:38;98406.00;;;6.05
62845;BMP280;48929;47.910;20.390;2023-04-15T00:55:08;98413.66;;;6.05
62845;BMP280;48929;47.910;20.390;2023-04-15T00:57:39;98414.44;;;6.06
62845;BMP280;48929;47.910;20.390;2023-04-15T01:00:08;98411.88;;;6.06
62845;BMP280;48929;47.910;20.390;2023-04-15T01:02:38;98411.84;;;6.11
62845;BMP280;48929;47.910;20.390;2023-04-15T01:05:07;98408.53;;;6.16
62845;BMP280;48929;47.910;20.390;2023-04-15T01:07:38;98398.78;;;6.18
62845;BMP280;48929;47.910;20.390;2023-04-15T01:10:08;98405.16;;;6.20
62845;BMP280;48929;47.910;20.390;2023-04-15T01:12:36;98415.91;;;6.22
62845;BMP280;48929;47.910;20.390;2023-04-15T01:15:07;98412.03;;;6.25
62845;BMP280;48929;47.910;20.390;2023-04-15T01:17:38;98418.41;;;6.27
62845;BMP280;48929;47.910;20.390;2023-04-15T01:20:07;98417.59;;;6.32
62845;BMP280;48929;47.910;20.390;2023-04-15T01:22:40;98424.25;;;6.38
62845;BMP280;48929;47.910;20.390;2023-04-15T01:25:10;98424.22;;;6.43
62845;BMP280;48929;47.910;20.390;2023-04-15T01:27:41;98417.78;;;6.45
62845;BMP280;48929;47.910;20.390;2023-04-15T01:30:10;98415.72;;;6.47
62845;BMP280;48929;47.910;20.390;2023-04-15T01:32:39;98420.31;;;6.51
62845;BMP280;48929;47.910;20.390;2023-04-15T01:35:08;98421.03;;;6.56
62845;BMP280;48929;47.910;20.390;2023-04-15T01:37:37;98426.13;;;6.61
62845;BMP280;48929;47.910;20.390;2023-04-15T01:40:07;98425.34;;;6.66
62845;BMP280;48929;47.910;20.390;2023-04-15T01:42:36;98421.19;;;6.70
62845;BMP280;48929;47.910;20.390;2023-04-15T01:45:08;98411.19;;;6.73
62845;BMP280;48929;47.910;20.390;2023-04-15T01:47:38;98408.03;;;6.81
62845;BMP280;48929;47.910;20.390;2023-04-15T01:50:11;98415.16;;;6.90
62845;BMP280;48929;47.910;20.390;2023-04-15T01:52:40;98413.53;;;6.99
62845;BMP280;48929;47.910;20.390;2023-04-15T01:55:09;98416.78;;;7.04
62845;BMP280;48929;47.910;20.390;2023-04-15T01:57:38;98406.22;;;7.11
62845;BMP280;48929;47.910;20.390;2023-04-15T02:00:10;98406.19;;;7.16
62845;BMP280;48929;47.910;20.390;2023-04-15T02:02:39;98405.88;;;7.22
62845;BMP280;48929;47.910;20.390;2023-04-15T02:05:10;98408.66;;;7.26
62845;BMP280;48929;47.910;20.390;2023-04-15T02:07:43;98408.09;;;7.29
62845;BMP280;48929;47.910;20.390;2023-04-15T02:10:12;98410.41;;;7.31
62845;BMP280;48929;47.910;20.390;2023-04-15T02:12:42;98410.88;;;7.33
62845;BMP280;48929;47.910;20.390;2023-04-15T02:15:13;98403.69;;;7.35
62845;BMP280;48929;47.910;20.390;2023-04-15T02:17:42;98405.75;;;7.33
62845;BMP280;48929;47.910;20.390;2023-04-15T02:20:12;98400.16;;;7.31
62845;BMP280;48929;47.910;20.390;2023-04-15T02:22:41;98401.94;;;7.30
62845;BMP280;48929;47.910;20.390;2023-04-15T02:25:09;98397.09;;;7.29
62845;BMP280;48929;47.910;20.390;2023-04-15T02:27:38;98396.63;;;7.27
62845;BMP280;48929;47.910;20.390;2023-04-15T02:30:07;98400.69;;;7.28
62845;BMP280;48929;47.910;20.390;2023-04-15T02:32:39;98407.06;;;7.30
62845;BMP280;48929;47.910;20.390;2023-04-15T02:35:09;98390.66;;;7.31
62845;BMP280;48929;47.910;20.390;2023-04-15T02:37:41;98396.53;;;7.32
62845;BMP280;48929;47.910;20.390;2023-04-15T02:40:12;98397.28;;;7.32
62845;BMP280;48929;47.910;20.390;2023-04-15T02:42:41;98393.41;;;7.35
62845;BMP280;48929;47.910;20.390;2023-04-15T02:45:10;98391.34;;;7.37
62845;BMP280;48929;47.910;20.390;2023-04-15T02:47:40;98389.56;;;7.37
62845;BMP280;48929;47.910;20.390;2023-04-15T02:50:12;98391.09;;;7.38
62845;BMP280;48929;47.910;20.390;2023-04-15T02:52:41;98385.19;;;7.38
62845;BMP280;48929;47.910;20.390;2023-04-15T02:55:10;98386.22;;;7.37
62845;BMP280;48929;47.910;20.390;2023-04-15T02:57:39;98391.63;;;7.35
62845;BMP280;48929;47.910;20.390;2023-04-15T03:00:08;98389.81;;;7.36
62845;BMP280;48929;47.910;20.390;2023-04-15T03:02:38;98391.63;;;7.35
62845;BMP280;48929;47.910;20.390;2023-04-15T03:05:12;98392.38;;;7.36
62845;BMP280;48929;47.910;20.390;2023-04-15T03:07:41;98385.47;;;7.36
62845;BMP280;48929;47.910;20.390;2023-04-15T03:10:10;98384.44;;;7.37
62845;BMP280;48929;47.910;20.390;2023-04-15T03:12:38;98387.00;;;7.37
62845;BMP280;48929;47.910;20.390;2023-04-15T03:15:08;98379.84;;;7.34
62845;BMP280;48929;47.910;20.390;2023-04-15T03:17:37;98382.41;;;7.34
62845;BMP280;48929;47.910;20.390;2023-04-15T03:20:06;98389.34;;;7.34
62845;BMP280;48929;47.910;20.390;2023-04-15T03:22:38;98389.59;;;7.32
62845;BMP280;48929;47.910;20.390;2023-04-15T03:25:07;98384.75;;;7.31
62845;BMP280;48929;47.910;20.390;2023-04-15T03:27:37;98386.06;;;7.28
62845;BMP280;48929;47.910;20.390;2023-04-15T03:30:06;98389.66;;;7.27
62845;BMP280;48929;47.910;20.390;2023-04-15T03:32:36;98388.94;;;7.27
62845;BMP280;48929;47.910;20.390;2023-04-15T03:35:05;98395.34;;;7.24
62845;BMP280;48929;47.910;20.390;2023-04-15T03:37:34;98401.00;;;7.21
62845;BMP280;48929;47.910;20.390;2023-04-15T03:40:06;98408.00;;;7.15
62845;BMP280;48929;47.910;20.390;2023-04-15T03:42:36;98412.66;;;7.08
62845;BMP280;48929;47.910;20.390;2023-04-15T03:45:05;98416.03;;;7.04
62845;BMP280;48929;47.910;20.390;2023-04-15T03:47:34;98410.47;;;6.97
62845;BMP280;48929;47.910;20.390;2023-04-15T03:50:03;98423.59;;;6.90
62845;BMP280;48929;47.910;20.390;2023-04-15T03:52:33;98418.03;;;6.83
62845;BMP280;48929;47.910;20.390;2023-04-15T03:55:01;98421.38;;;6.78
62845;BMP280;48929;47.910;20.390;2023-04-15T03:57:31;98419.13;;;6.72
62845;BMP280;48929;47.910;20.390;2023-04-15T04:00:05;98417.16;;;6.64
62845;BMP280;48929;47.910;20.390;2023-04-15T04:02:33;98407.69;;;6.59
62845;BMP280;48929;47.910;20.390;2023-04-15T04:05:03;98413.38;;;6.56
62845;BMP280;48929;47.910;20.390;2023-04-15T04:07:32;98420.81;;;6.53
62845;BMP280;48929;47.910;20.390;2023-04-15T04:10:01;98408.81;;;6.48
62845;BMP280;48929;47.910;20.390;2023-04-15T04:12:32;98409.13;;;6.41
62845;BMP280;48929;47.910;20.390;2023-04-15T04:15:01;98412.72;;;6.35
62845;BMP280;48929;47.910;20.390;2023-04-15T04:17:29;98415.59;;;6.29
62845;BMP280;48929;47.910;20.390;2023-04-15T04:19:58;98417.69;;;6.22
62845;BMP280;48929;47.910;20.390;2023-04-15T04:22:27;98416.91;;;6.21
62845;BMP280;48929;47.910;20.390;2023-04-15T04:24:56;98412.56;;;6.22
62845;BMP280;48929;47.910;20.390;2023-04-15T04:27:25;98418.44;;;6.22
62845;BMP280;48929;47.910;20.390;2023-04-15T04:29:57;98421.53;;;6.19
62845;BMP280;48929;47.910;20.390;2023-04-15T04:32:30;98421.03;;;6.17
62845;BMP280;48929;47.910;20.390;2023-04-15T04:34:58;98416.72;;;6.13
62845;BMP280;48929;47.910;20.390;2023-04-15T04:37:27;98421.31;;;6.11
62845;BMP280;48929;47.910;20.390;2023-04-15T04:39:56;98425.94;;;6.08
62845;BMP280;48929;47.910;20.390;2023-04-15T04:42:24;98433.34;;;6.10
62845;BMP280;48929;47.910;20.390;2023-04-15T04:44:53;98424.91;;;6.15
62845;BMP280;48929;47.910;20.390;2023-04-15T04:47:23;98421.53;;;6.19
62845;BMP280;48929;47.910;20.390;2023-04-15T04:49:52;98422.50;;;6.23
62845;BMP280;48929;47.910;20.390;2023-04-15T04:52:21;98427.13;;;6.26
62845;BMP280;48929;47.910;20.390;2023-04-15T04:54:50;98434.75;;;6.31
62845;BMP280;48929;47.910;20.390;2023-04-15T04:57:19;98430.41;;;6.32
62845;BMP280;48929;47.910;20.390;2023-04-15T04:59:48;98428.59;;;6.32
62845;BMP280;48929;47.910;20.390;2023-04-15T05:02:16;98431.16;;;6.32
62845;BMP280;48929;47.910;20.390;2023-04-15T05:04:47;98435.75;;;6.35
62845;BMP280;48929;47.910;20.390;2023-04-15T05:07:16;98442.66;;;6.40
62845;BMP280;48929;47.910;20.390;2023-04-15T05:09:46;98445.94;;;6.45
62845;BMP280;48929;47.910;20.390;2023-04-15T05:12:15;98444.34;;;6.50
62845;BMP280;48929;47.910;20.390;2023-04-15T05:14:44;98446.63;;;6.56
62845;BMP280;48929;47.910;20.390;2023-04-15T05:17:14;98445.06;;;6.60
62845;BMP280;48929;47.910;20.390;2023-04-15T05:19:42;98445.31;;;6.64
62845;BMP280;48929;47.910;20.390;2023-04-15T05:22:13;98445.81;;;6.66
62845;BMP280;48929;47.910;20.390;2023-04-15T05:24:42;98439.09;;;6.70
62845;BMP280;48929;47.910;20.390;2023-04-15T05:27:11;98444.16;;;6.80
62845;BMP280;48929;47.910;20.390;2023-04-15T05:29:39;98445.63;;;6.91
62845;BMP280;48929;47.910;20.390;2023-04-15T05:32:08;98438.88;;;7.00
62845;BMP280;48929;47.910;20.390;2023-04-15T05:34:37;98450.59;;;7.06
62845;BMP280;48929;47.910;20.390;2023-04-15T05:37:07;98443.38;;;7.08
62845;BMP280;48929;47.910;20.390;2023-04-15T05:39:37;98448.22;;;7.15
62845;BMP280;48929;47.910;20.390;2023-04-15T05:42:05;98444.09;;;7.19
62845;BMP280;48929;47.910;20.390;2023-04-15T05:44:34;98448.66;;;7.22
62845;BMP280;48929;47.910;20.390;2023-04-15T05:47:03;98446.59;;;7.24
62845;BMP280;48929;47.910;20.390;2023-04-15T05:49:33;98445.56;;;7.25
62845;BMP280;48929;47.910;20.390;2023-04-15T05:52:03;98442.44;;;7.28
62845;BMP280;48929;47.910;20.390;2023-04-15T05:54:32;98447.50;;;7.33
62845;BMP280;48929;47.910;20.390;2023-04-15T05:57:06;98455.94;;;7.39
62845;BMP280;48929;47.910;20.390;2023-04-15T05:59:35;98456.94;;;7.43
62845;BMP280;48929;47.910;20.390;2023-04-15T06:02:05;98450.44;;;7.50
62845;BMP280;48929;47.910;20.390;2023-04-15T06:04:33;98454.44;;;7.56
62845;BMP280;48929;47.910;20.390;2023-04-15T06:07:02;98459.25;;;7.63
62845;BMP280;48929;47.910;20.390;2023-04-15T06:09:32;98458.88;;;7.75
62845;BMP280;48929;47.910;20.390;2023-04-15T06:12:01;98462.28;;;7.89
62845;BMP280;48929;47.910;20.390;2023-04-15T06:14:31;98455.63;;;8.07
62845;BMP280;48929;47.910;20.390;2023-04-15T06:17:00;98461.91;;;8.19
62845;BMP280;48929;47.910;20.390;2023-04-15T06:19:29;98467.34;;;8.31
62845;BMP280;48929;47.910;20.390;2023-04-15T06:21:58;98464.31;;;8.48
62845;BMP280;48929;47.910;20.390;2023-04-15T06:24:27;98477.94;;;8.62
62845;BMP280;48929;47.910;20.390;2023-04-15T06:26:55;98466.09;;;8.66
62845;BMP280;48929;47.910;20.390;2023-04-15T06:29:24;98470.84;;;8.73
62845;BMP280;48929;47.910;20.390;2023-04-15T06:31:54;98468.50;;;8.76
62845;BMP280;48929;47.910;20.390;2023-04-15T06:34:23;98479.44;;;8.82
62845;BMP280;48929;47.910;20.390;2023-04-15T06:36:52;98480.31;;;8.91
62845;BMP280;48929;47.910;20.390;2023-04-15T06:39:21;98484.66;;;9.09
62845;BMP280;48929;47.910;20.390;2023-04-15T06:41:50;98487.72;;;9.25
62845;BMP280;48929;47.910;20.390;2023-04-15T06:44:19;98487.09;;;9.47
62845;BMP280;48929;47.910;20.390;2023-04-15T06:46:50;98495.72;;;9.65
62845;BMP280;48929;47.910;20.390;2023-04-15T06:49:20;98495.53;;;9.75
62845;BMP280;48929;47.910;20.390;2023-04-15T06:51:50;98500.94;;;9.87
62845;BMP280;48929;47.910;20.390;2023-04-15T06:54:19;98502.28;;;9.98
62845;BMP280;48929;47.910;20.390;2023-04-15T06:56:48;98509.56;;;9.82
62845;BMP280;48929;47.910;20.390;2023-04-15T06:59:17;98505.53;;;9.76
62845;BMP280;48929;47.910;20.390;2023-04-15T07:01:49;98511.72;;;9.75
62845;BMP280;48929;47.910;20.390;2023-04-15T07:04:20;98515.81;;;9.76
62845;BMP280;48929;47.910;20.390;2023-04-15T07:06:48;98515.38;;;9.74
62845;BMP280;48929;47.910;20.390;2023-04-15T07:09:18;98521.47;;;9.78
62845;BMP280;48929;47.910;20.390;2023-04-15T07:11:46;98515.50;;;9.91
62845;BMP280;48929;47.910;20.390;2023-04-15T07:14:16;98516.34;;;10.01
62845;BMP280;48929;47.910;20.390;2023-04-15T07:16:44;98526.00;;;10.09
62845;BMP280;48929;47.910;20.390;2023-04-15T07:19:13;98527.97;;;10.25
62845;BMP280;48929;47.910;20.390;2023-04-15T07:21:44;98525.13;;;10.49
62845;BMP280;48929;47.910;20.390;2023-04-15T07:24:12;98524.75;;;10.42
62845;BMP280;48929;47.910;20.390;2023-04-15T07:26:44;98521.97;;;10.38
62845;BMP280;48929;47.910;20.390;2023-04-15T07:29:13;98526.81;;;10.31
62845;BMP280;48929;47.910;20.390;2023-04-15T07:31:42;98533.00;;;10.30
62845;BMP280;48929;47.910;20.390;2023-04-15T07:34:11;98525.66;;;10.24
62845;BMP280;48929;47.910;20.390;2023-04-15T07:36:40;98523.38;;;10.22
62845;BMP280;48929;47.910;20.390;2023-04-15T07:39:10;98533.28;;;10.29
62845;BMP280;48929;47.910;20.390;2023-04-15T07:41:39;98537.69;;;10.51
62845;BMP280;48929;47.910;20.390;2023-04-15T07:44:08;98536.19;;;10.50
62845;BMP280;48929;47.910;20.390;2023-04-15T07:46:38;98546.09;;;10.56
62845;BMP280;48929;47.910;20.390;2023-04-15T07:49:07;98546.84;;;10.57
62845;BMP280;48929;47.910;20.390;2023-04-15T07:51:37;98557.50;;;10.64
62845;BMP280;48929;47.910;20.390;2023-04-15T07:54:05;98550.22;;;10.66
62845;BMP280;48929;47.910;20.390;2023-04-15T07:56:36;98542.94;;;10.68
62845;BMP280;48929;47.910;20.390;2023-04-15T07:59:05;98544.31;;;10.88
62845;BMP280;48929;47.910;20.390;2023-04-15T08:01:35;98538.50;;;11.04
62845;BMP280;48929;47.910;20.390;2023-04-15T08:04:05;98542.50;;;11.19
62845;BMP280;48929;47.910;20.390;2023-04-15T08:06:34;98538.81;;;11.42
62845;BMP280;48929;47.910;20.390;2023-04-15T08:09:06;98532.97;;;11.59
62845;BMP280;48929;47.910;20.390;2023-04-15T08:11:36;98534.94;;;11.71
62845;BMP280;48929;47.910;20.390;2023-04-15T08:14:08;98529.19;;;11.74
62845;BMP280;48929;47.910;20.390;2023-04-15T08:16:37;98532.53;;;11.74
62845;BMP280;48929;47.910;20.390;2023-04-15T08:19:07;98528.72;;;11.63
62845;BMP280;48929;47.910;20.390;2023-04-15T08:21:38;98532.63;;;11.52
62845;BMP280;48929;47.910;20.390;2023-04-15T08:24:08;98531.81;;;11.43
62845;BMP280;48929;47.910;20.390;2023-04-15T08:26:38;98522.31;;;11.52
62845;BMP280;48929;47.910;20.390;2023-04-15T08:29:08;98518.22;;;11.68
62845;BMP280;48929;47.910;20.390;2023-04-15T08:31:36;98522.22;;;11.83
62845;BMP280;48929;47.910;20.390;2023-04-15T08:34:05;98533.75;;;11.85
62845;BMP280;48929;47.910;20.390;2023-04-15T08:36:34;98528.16;;;12.00
62845;BMP280;48929;47.910;20.390;2023-04-15T08:39:03;98517.22;;;12.03
62845;BMP280;48929;47.910;20.390;2023-04-15T08:41:40;98530.13;;;12.03
62845;BMP280;48929;47.910;20.390;2023-04-15T08:44:16;98529.81;;;12.05
62845;BMP280;48929;47.910;20.390;2023-04-15T08:46:46;98526.94;;;11.89
62845;BMP280;48929;47.910;20.390;2023-04-15T08:49:16;98526.13;;;11.72
62845;BMP280;48929;47.910;20.390;2023-04-15T08:51:46;98526.91;;;11.64
62845;BMP280;48929;47.910;20.390;2023-04-15T08:54:16;98529.78;;;11.62
62845;BMP280;48929;47.910;20.390;2023-04-15T08:56:46;98528.41;;;11.65
62845;BMP280;48929;47.910;20.390;2023-04-15T08:59:17;98533.59;;;11.65
62845;BMP280;48929;47.910;20.390;2023-04-15T09:01:48;98539.34;;;11.70
62845;BMP280;48929;47.910;20.390;2023-04-15T09:04:17;98540.13;;;11.79
62845;BMP280;48929;47.910;20.390;2023-04-15T09:06:46;98536.06;;;11.95
62845;BMP280;48929;47.910;20.390;2023-04-15T09:09:15;98537.13;;;12.20
62845;BMP280;48929;47.910;20.390;2023-04-15T09:11:44;98536.84;;;12.30
62845;BMP280;48929;47.910;20.390;2023-04-15T09:14:12;98527.09;;;12.36
62845;BMP280;48929;47.910;20.390;2023-04-15T09:16:59;98523.00;;;12.43
62845;BMP280;48929;47.910;20.390;2023-04-15T09:19:29;98520.06;;;12.62
62845;BMP280;48929;47.910;20.390;2023-04-15T09:21:59;98520.19;;;12.83
62845;BMP280;48929;47.910;20.390;2023-04-15T09:24:35;98527.41;;;12.98
62845;BMP280;48929;47.910;20.390;2023-04-15T09:27:05;98514.91;;;13.09
62845;BMP280;48929;47.910;20.390;2023-04-15T09:29:34;98506.41;;;13.00
62845;BMP280;48929;47.910;20.390;2023-04-15T09:32:12;98513.00;;;12.97
62845;BMP280;48929;47.910;20.390;2023-04-15T09:34:40;98519.22;;;12.96
62845;BMP280;48929;47.910;20.390;2023-04-15T09:37:09;98514.50;;;12.98
62845;BMP280;48929;47.910;20.390;2023-04-15T09:39:57;98515.88;;;12.96
62845;BMP280;48929;47.910;20.390;2023-04-15T09:42:26;98517.38;;;13.05
62845;BMP280;48929;47.910;20.390;2023-04-15T09:44:54;98508.16;;;13.25
62845;BMP280;48929;47.910;20.390;2023-04-15T09:47:28;98517.09;;;13.27
62845;BMP280;48929;47.910;20.390;2023-04-15T09:49:59;98525.13;;;13.35
62845;BMP280;48929;47.910;20.390;2023-04-15T09:52:29;98524.97;;;13.40
62845;BMP280;48929;47.910;20.390;2023-04-15T09:54:59;98523.44;;;13.39
62845;BMP280;48929;47.910;20.390;2023-04-15T09:57:33;98529.72;;;13.29
62845;BMP280;48929;47.910;20.390;2023-04-15T10:00:03;98525.72;;;13.11
62845;BMP280;48929;47.910;20.390;2023-04-15T10:02:34;98542.97;;;12.90
62845;BMP280;48929;47.910;20.390;2023-04-15T10:05:03;98535.41;;;12.67
62845;BMP280;48929;47.910;20.390;2023-04-15T10:07:33;98552.66;;;12.37
62845;BMP280;48929;47.910;20.390;2023-04-15T10:10:02;98555.81;;;11.91
62845;BMP280;48929;47.910;20.390;2023-04-15T10:12:31;98577.81;;;11.41
62845;BMP280;48929;47.910;20.390;2023-04-15T10:15:03;98578.16;;;10.95
62845;BMP280;48929;47.910;20.390;2023-04-15T10:17:35;98571.66;;;10.53
62845;BMP280;48929;47.910;20.390;2023-04-15T10:20:05;98579.81;;;10.19
62845;BMP280;48929;47.910;20.390;2023-04-15T10:22:35;98580.16;;;10.04
62845;BMP280;48929;47.910;20.390;2023-04-15T10:25:05;98567.38;;;9.98
62845;BMP280;48929;47.910;20.390;2023-04-15T10:27:35;98567.00;;;10.05
62845;BMP280;48929;47.910;20.390;2023-04-15T10:30:05;98571.09;;;10.06
62845;BMP280;48929;47.910;20.390;2023-04-15T10:32:36;98571.94;;;10.02
62845;BMP280;48929;47.910;20.390;2023-04-15T10:35:06;98570.34;;;10.06
62845;BMP280;48929;47.910;20.390;2023-04-15T10:37:37;98584.03;;;10.15
62845;BMP280;48929;47.910;20.390;2023-04-15T10:40:26;98581.47;;;10.15
62845;BMP280;48929;47.910;20.390;2023-04-15T10:43:01;98580.63;;;10.06
62845;BMP280;48929;47.910;20.390;2023-04-15T10:45:32;98578.25;;;9.95
62845;BMP280;48929;47.910;20.390;2023-04-15T10:48:06;98583.50;;;9.90
62845;BMP280;48929;47.910;20.390;2023-04-15T10:50:36;98583.59;;;9.85
62845;BMP280;48929;47.910;20.390;2023-04-15T10:53:09;98581.59;;;9.82
62845;BMP280;48929;47.910;20.390;2023-04-15T10:55:37;98574.72;;;9.78
62845;BMP280;48929;47.910;20.390;2023-04-15T10:58:08;98584.53;;;9.76
62845;BMP280;48929;47.910;20.390;2023-04-15T11:00:37;98569.19;;;9.71
62845;BMP280;48929;47.910;20.390;2023-04-15T11:03:11;98574.88;;;9.68
62845;BMP280;48929;47.910;20.390;2023-04-15T11:05:51;98579.97;;;9.73
62845;BMP280;48929;47.910;20.390;2023-04-15T11:08:53;98571.38;;;9.91
62845;BMP280;48929;47.910;20.390;2023-04-15T11:11:22;98576.31;;;10.15
62845;BMP280;48929;47.910;20.390;2023-04-15T11:13:51;98574.47;;;10.29
62845;BMP280;48929;47.910;20.390;2023-04-15T11:16:20;98580.34;;;10.43
62845;BMP280;48929;47.910;20.390;2023-04-15T11:18:56;98583.47;;;10.54
62845;BMP280;48929;47.910;20.390;2023-04-15T11:21:24;98595.50;;;10.58
62845;BMP280;48929;47.910;20.390;2023-04-15T11:23:54;98587.31;;;10.56
62845;BMP280;48929;47.910;20.390;2023-04-15T11:26:28;98587.97;;;10.48
62845;BMP280;48929;47.910;20.390;2023-04-15T11:28:58;98573.63;;;10.33
62845;BMP280;48929;47.910;20.390;2023-04-15T11:31:28;98566.00;;;10.51
62845;BMP280;48929;47.910;20.390;2023-04-15T11:33:59;98560.56;;;10.88
62845;BMP280;48929;47.910;20.390;2023-04-15T11:36:29;98563.13;;;11.19
62845;BMP280;48929;47.910;20.390;2023-04-15T11:38:59;98549.88;;;11.34
62845;BMP280;48929;47.910;20.390;2023-04-15T11:41:28;98547.56;;;11.33
62845;BMP280;48929;47.910;20.390;2023-04-15T11:43:57;98557.97;;;11.19
62845;BMP280;48929;47.910;20.390;2023-04-15T11:46:29;98560.88;;;10.95
62845;BMP280;48929;47.910;20.390;2023-04-15T11:49:02;98573.19;;;10.76
62845;BMP280;48929;47.910;20.390;2023-04-15T11:51:32;98575.41;;;10.69
62845;BMP280;48929;47.910;20.390;2023-04-15T11:54:02;98566.88;;;10.82
62845;BMP280;48929;47.910;20.390;2023-04-15T11:56:31;98572.44;;;10.98
62845;BMP280;48929;47.910;20.390;2023-04-15T11:59:01;98574.13;;;11.02
62845;BMP280;48929;47.910;20.390;2023-04-15T12:01:32;98571.53;;;11.02
62845;BMP280;48929;47.910;20.390;2023-04-15T12:04:10;98574.00;;;11.07
62845;BMP280;48929;47.910;20.390;2023-04-15T12:06:39;98569.63;;;11.16
62845;BMP280;48929;47.910;20.390;2023-04-15T12:09:09;98570.09;;;11.18
62845;BMP280;48929;47.910;20.390;2023-04-15T12:11:41;98566.91;;;11.13
62845;BMP280;48929;47.910;20.390;2023-04-15T12:14:12;98561.28;;;11.11
62845;BMP280;48929;47.910;20.390;2023-04-15T12:16:44;98567.63;;;11.05
62845;BMP280;48929;47.910;20.390;2023-04-15T12:19:18;98579.75;;;11.04
62845;BMP280;48929;47.910;20.390;2023-04-15T12:21:52;98570.66;;;11.07
62845;BMP280;48929;47.910;20.390;2023-04-15T12:24:23;98560.34;;;11.07
62845;BMP280;48929;47.910;20.390;2023-04-15T12:26:54;98573.56;;;10.92
62845;BMP280;48929;47.910;20.390;2023-04-15T12:29:25;98581.38;;;10.78
62845;BMP280;48929;47.910;20.390;2023-04-15T12:31:56;98576.94;;;10.70
62845;BMP280;48929;47.910;20.390;2023-04-15T12:34:29;98579.63;;;10.65
62845;BMP280;48929;47.910;20.390;2023-04-15T12:37:01;98582.97;;;10.65
62845;BMP280;48929;47.910;20.390;2023-04-15T12:39:35;98581.28;;;10.61
62845;BMP280;48929;47.910;20.390;2023-04-15T12:42:05;98582.50;;;10.63
62845;BMP280;48929;47.910;20.390;2023-04-15T12:44:35;98580.09;;;10.67
62845;BMP280;48929;47.910;20.390;2023-04-15T12:47:04;98572.81;;;10.69
62845;BMP280;48929;47.910;20.390;2023-04-15T12:49:34;98575.31;;;10.74
62845;BMP280;48929;47.910;20.390;2023-04-15T12:52:04;98579.28;;;10.80
62845;BMP280;48929;47.910;20.390;2023-04-15T12:54:32;98595.03;;;10.78
62845;BMP280;48929;47.910;20.390;2023-04-15T12:57:02;98607.00;;;10.74
62845;BMP280;48929;47.910;20.390;2023-04-15T12:59:33;98610.25;;;10.66
62845;BMP280;48929;47.910;20.390;2023-04-15T13:02:02;98605.81;;;10.58
62845;BMP280;48929;47.910;20.390;2023-04-15T13:04:33;98621.06;;;10.55
62845;BMP280;48929;47.910;20.390;2023-04-15T13:07:02;98631.94;;;10.52
62845;BMP280;48929;47.910;20.390;2023-04-15T13:09:31;98620.22;;;10.46
62845;BMP280;48929;47.910;20.390;2023-04-15T13:12:00;98626.25;;;10.41
62845;BMP280;48929;47.910;20.390;2023-04-15T13:14:31;98630.47;;;10.37
62845;BMP280;48929;47.910;20.390;2023-04-15T13:17:00;98612.06;;;10.30
62845;BMP280;48929;47.910;20.390;2023-04-15T13:19:37;98609.28;;;10.13
62845;BMP280;48929;47.910;20.390;2023-04-15T13:22:06;98604.56;;;10.06
62845;BMP280;48929;47.910;20.390;2023-04-15T13:24:35;98610.66;;;9.96
62845;BMP280;48929;47.910;20.390;2023-04-15T13:27:05;98610.38;;;9.84
62845;BMP280;48929;47.910;20.390;2023-04-15T13:29:35;98622.56;;;9.79
62845;BMP280;48929;47.910;20.390;2023-04-15T13:32:04;98638.88;;;9.74
62845;BMP280;48929;47.910;20.390;2023-04-15T13:34:33;98649.50;;;9.68
62845;BMP280;48929;47.910;20.390;2023-04-15T13:37:07;98663.31;;;9.58
62845;BMP280;48929;47.910;20.390;2023-04-15T13:39:36;98662.88;;;9.37
62845;BMP280;48929;47.910;20.390;2023-04-15T13:42:05;98673.19;;;9.18
62845;BMP280;48929;47.910;20.390;2023-04-15T13:44:34;98677.75;;;9.03
62845;BMP280;48929;47.910;20.390;2023-04-15T13:47:03;98689.00;;;8.88
62845;BMP280;48929;47.910;20.390;2023-04-15T13:49:32;98694.81;;;8.75
62845;BMP280;48929;47.910;20.390;2023-04-15T13:52:01;98696.97;;;8.68
62845;BMP280;48929;47.910;20.390;2023-04-15T13:54:31;98697.22;;;8.66
62845;BMP280;48929;47.910;20.390;2023-04-15T13:57:04;98691.81;;;8.68
62845;BMP280;48929;47.910;20.390;2023-04-15T13:59:32;98696.69;;;8.69
62845;BMP280;48929;47.910;20.390;2023-04-15T14:02:02;98688.91;;;8.74
62845;BMP280;48929;47.910;20.390;2023-04-15T14:04:31;98679.13;;;8.76
62845;BMP280;48929;47.910;20.390;2023-04-15T14:07:00;98680.41;;;8.79
62845;BMP280;48929;47.910;20.390;2023-04-15T14:09:34;98673.94;;;8.82
62845;BMP280;48929;47.910;20.390;2023-04-15T14:12:09;98684.50;;;8.80
62845;BMP280;48929;47.910;20.390;2023-04-15T14:14:38;98677.56;;;8.81
62845;BMP280;48929;47.910;20.390;2023-04-15T14:17:07;98677.34;;;8.77
62845;BMP280;48929;47.910;20.390;2023-04-15T14:19:36;98675.53;;;8.77